Starke, FL

2:46 PM EDT on October 24, 2014 (GMT -0400)
North Keystone | Change Station
CLOSE
Current Station
Personal Weather Station
Location: Keystone Heights, FL
Elevation: 174 ft
Nearby Weather Stations

Elev 174 ft 29.83 °N, 81.98 °W | Updated 1 second ago

Partly Cloudy
Partly Cloudy
80.6 °F
Feels Like 78 °F
N
0.0
Wind Variable Wind from ENE
Gusts 7.2 mph

Today
High -- | Low -- °F
--% Chance of Precip.
Yesterday
High -- | Low -- °F
Precip. -- in
7:36 AM 6:48 PM
New Moon, 1% visible
Pressure 30.01 in
Visibility 10.0 miles
Clouds Clear
Heat Index 78 °F
Dew Point -16 °F
Humidity 2%
Rainfall 0.00 in
Snow Depth Not available.
UV 8 out of 12
Pollen 4.40 out of 12
Air Quality Not available.
Flu Activity Local Activity
METAR KVQQ 241750Z VRB03KT 10SM CLR 23/09 A3001

More Conditions Fewer Conditions

Pressure 30.01 in
Visibility 10.0 miles
Clouds Clear
Heat Index 78 °F
Dew Point -16 °F
Humidity 2%
Rainfall 0.00 in
Snow Depth Not available.
UV 8 out of 12
Pollen 4.40 out of 12
Air Quality Not available.
Flu Activity Local Activity
METAR KVQQ 241750Z VRB03KT 10SM CLR 23/09 A3001

More Conditions Fewer Conditions

10-Day Weather Forecast

Almanac

Astronomy

Oct. 24, 2014 Rise Set
Actual Time 7:36 AM EDT 6:48 PM EDT
Civil Twilight 7:11 AM EDT 7:12 PM EDT
Nautical Twilight 6:43 AM EDT 7:40 PM EDT
Astronomical Twilight 6:15 AM EDT 8:08 PM EDT
Moon 8:11 AM EDT 7:30 PM EDT
Length of Visible Light 12h 00m
Length of Day
11h 12m
Tomorrow will be 1m 39s shorter.
New Moon, 1% of the Moon is Illuminated
Today
New Moon
Oct 30
First Quarter
Nov 6
Full
Nov 14
Last Quarter
Nov 22
New

Today's Extremes

State Highs State Lows

Community

WunderPhotos

Upload Photos

1,764,634 photos uploaded!

Nearby

Snow Depth

Station Depth Elevation
No new snow has been reported.

Earthquake Activity

City Distance Mag. Time & Date
No recent earthquake activity has been reported nearby.
Minimum magnitude displayed is 2.5.

Coastal Water Temperatures

Place Temperature
No Stations Reporting

Nearby Weather Stations